sensor_id;sensor_type;location;lat;lon;timestamp;pressure;altitude;pressure_sealevel;temperature;humidity
58295;BME280;45705;55.592;37.460;2023-05-08T00:00:34;100546.47;;;1.85;69.93
58295;BME280;45705;55.592;37.460;2023-05-08T00:02:59;100552.88;;;1.84;70.14
58295;BME280;45705;55.592;37.460;2023-05-08T00:05:25;100557.41;;;1.84;69.54
58295;BME280;45705;55.592;37.460;2023-05-08T00:07:50;100557.00;;;1.80;70.24
58295;BME280;45705;55.592;37.460;2023-05-08T00:10:17;100559.69;;;1.80;71.44
58295;BME280;45705;55.592;37.460;2023-05-08T00:12:43;100558.47;;;1.76;72.43
58295;BME280;45705;55.592;37.460;2023-05-08T00:15:08;100557.25;;;1.72;72.20
58295;BME280;45705;55.592;37.460;2023-05-08T00:17:34;100560.72;;;1.79;71.65
58295;BME280;45705;55.592;37.460;2023-05-08T00:19:59;100559.34;;;1.70;72.92
58295;BME280;45705;55.592;37.460;2023-05-08T00:22:27;100564.69;;;1.70;72.60
58295;BME280;45705;55.592;37.460;2023-05-08T00:24:53;100557.47;;;1.70;72.71
58295;BME280;45705;55.592;37.460;2023-05-08T00:27:18;100570.09;;;1.63;73.08
58295;BME280;45705;55.592;37.460;2023-05-08T00:29:44;100572.13;;;1.68;73.25
58295;BME280;45705;55.592;37.460;2023-05-08T00:32:10;100564.28;;;1.73;72.38
58295;BME280;45705;55.592;37.460;2023-05-08T00:34:35;100573.34;;;1.72;73.53
58295;BME280;45705;55.592;37.460;2023-05-08T00:37:01;100575.41;;;1.70;74.53
58295;BME280;45705;55.592;37.460;2023-05-08T00:39:27;100575.88;;;1.67;74.36
58295;BME280;45705;55.592;37.460;2023-05-08T00:41:53;100571.53;;;1.66;75.05
58295;BME280;45705;55.592;37.460;2023-05-08T00:44:18;100571.53;;;1.66;74.69
58295;BME280;45705;55.592;37.460;2023-05-08T00:46:44;100572.56;;;1.65;74.30
58295;BME280;45705;55.592;37.460;2023-05-08T00:49:10;100579.97;;;1.63;74.35
58295;BME280;45705;55.592;37.460;2023-05-08T00:51:45;100572.13;;;1.68;72.98
58295;BME280;45705;55.592;37.460;2023-05-08T00:54:11;100576.69;;;1.67;73.30
58295;BME280;45705;55.592;37.460;2023-05-08T00:56:37;100573.41;;;1.65;73.80
58295;BME280;45705;55.592;37.460;2023-05-08T00:59:05;100573.78;;;1.69;73.96
58295;BME280;45705;55.592;37.460;2023-05-08T01:01:32;100575.88;;;1.67;73.45
58295;BME280;45705;55.592;37.460;2023-05-08T01:03:59;100577.28;;;1.69;72.89
58295;BME280;45705;55.592;37.460;2023-05-08T01:06:24;100579.56;;;1.66;74.03
58295;BME280;45705;55.592;37.460;2023-05-08T01:08:51;100592.97;;;1.66;74.37
58295;BME280;45705;55.592;37.460;2023-05-08T01:13:49;100588.22;;;1.68;73.14
58295;BME280;45705;55.592;37.460;2023-05-08T01:16:16;100589.09;;;1.62;74.27
58295;BME280;45705;55.592;37.460;2023-05-08T01:19:26;100584.94;;;1.66;74.23
58295;BME280;45705;55.592;37.460;2023-05-08T01:24:15;100589.69;;;1.57;73.18
58295;BME280;45705;55.592;37.460;2023-05-08T01:27:08;100590.34;;;1.52;73.93
58295;BME280;45705;55.592;37.460;2023-05-08T01:30:03;100583.53;;;1.56;75.30
58295;BME280;45705;55.592;37.460;2023-05-08T01:32:42;100596.97;;;1.43;76.88
58295;BME280;45705;55.592;37.460;2023-05-08T01:35:23;100599.72;;;1.30;78.50
58295;BME280;45705;55.592;37.460;2023-05-08T01:42:48;100598.69;;;1.31;79.04
58295;BME280;45705;55.592;37.460;2023-05-08T01:45:22;100600.75;;;1.29;79.57
58295;BME280;45705;55.592;37.460;2023-05-08T01:47:56;100599.09;;;1.28;79.66
58295;BME280;45705;55.592;37.460;2023-05-08T01:50:29;100610.25;;;1.18;80.15
58295;BME280;45705;55.592;37.460;2023-05-08T01:52:57;100606.97;;;1.23;80.36
58295;BME280;45705;55.592;37.460;2023-05-08T01:55:26;100611.91;;;1.12;80.74
58295;BME280;45705;55.592;37.460;2023-05-08T01:57:55;100618.53;;;1.16;80.95
58295;BME280;45705;55.592;37.460;2023-05-08T02:00:22;100617.72;;;1.09;81.58
58295;BME280;45705;55.592;37.460;2023-05-08T02:02:48;100617.72;;;1.09;81.24
58295;BME280;45705;55.592;37.460;2023-05-08T02:05:15;100623.03;;;1.23;81.96
58295;BME280;45705;55.592;37.460;2023-05-08T02:07:45;100620.75;;;1.26;82.62
58295;BME280;45705;55.592;37.460;2023-05-08T02:10:13;100628.97;;;1.31;82.04
58295;BME280;45705;55.592;37.460;2023-05-08T02:12:39;100617.66;;;1.36;81.20
58295;BME280;45705;55.592;37.460;2023-05-08T02:15:05;100624.19;;;1.47;80.22
58295;BME280;45705;55.592;37.460;2023-05-08T02:17:32;100618.41;;;1.43;79.28
58295;BME280;45705;55.592;37.460;2023-05-08T02:20:00;100627.88;;;1.52;78.37
58295;BME280;45705;55.592;37.460;2023-05-08T02:22:29;100621.66;;;1.65;77.15
58295;BME280;45705;55.592;37.460;2023-05-08T02:24:56;100627.63;;;1.67;76.10
58295;BME280;45705;55.592;37.460;2023-05-08T02:27:24;100627.78;;;1.72;75.55
58295;BME280;45705;55.592;37.460;2023-05-08T02:29:50;100628.56;;;1.86;74.72
58295;BME280;45705;55.592;37.460;2023-05-08T02:32:16;100629.84;;;1.77;74.49
58295;BME280;45705;55.592;37.460;2023-05-08T02:34:43;100629.34;;;1.93;73.64
58295;BME280;45705;55.592;37.460;2023-05-08T02:37:09;100632.28;;;1.85;73.34
58295;BME280;45705;55.592;37.460;2023-05-08T02:39:36;100639.84;;;2.02;71.79
58295;BME280;45705;55.592;37.460;2023-05-08T02:42:03;100637.06;;;2.15;71.11
58295;BME280;45705;55.592;37.460;2023-05-08T02:44:29;100637.06;;;2.15;70.09
58295;BME280;45705;55.592;37.460;2023-05-08T02:46:56;100634.88;;;2.30;70.39
58295;BME280;45705;55.592;37.460;2023-05-08T02:49:26;100633.41;;;2.34;68.61
58295;BME280;45705;55.592;37.460;2023-05-08T02:52:05;100628.56;;;2.50;66.77
58295;BME280;45705;55.592;37.460;2023-05-08T02:57:00;100645.94;;;2.72;64.99
58295;BME280;45705;55.592;37.460;2023-05-08T02:59:30;100652.91;;;2.80;64.86
58295;BME280;45705;55.592;37.460;2023-05-08T03:02:05;100648.94;;;2.83;65.11
58295;BME280;45705;55.592;37.460;2023-05-08T03:04:35;100651.19;;;2.86;64.86
58295;BME280;45705;55.592;37.460;2023-05-08T03:07:01;100640.75;;;2.96;63.99
58295;BME280;45705;55.592;37.460;2023-05-08T03:09:37;100647.06;;;3.08;63.36
58295;BME280;45705;55.592;37.460;2023-05-08T03:12:05;100651.69;;;3.01;63.19
58295;BME280;45705;55.592;37.460;2023-05-08T03:14:34;100657.53;;;3.17;63.08
58295;BME280;45705;55.592;37.460;2023-05-08T03:17:01;100658.41;;;3.10;63.43
58295;BME280;45705;55.592;37.460;2023-05-08T03:19:32;100656.81;;;3.28;62.55
58295;BME280;45705;55.592;37.460;2023-05-08T03:21:59;100656.03;;;3.39;62.24
58295;BME280;45705;55.592;37.460;2023-05-08T03:24:26;100653.19;;;3.52;61.65
58295;BME280;45705;55.592;37.460;2023-05-08T03:26:54;100662.34;;;3.51;61.73
58295;BME280;45705;55.592;37.460;2023-05-08T03:29:20;100657.84;;;3.82;60.83
58295;BME280;45705;55.592;37.460;2023-05-08T03:31:46;100654.84;;;5.22;56.55
58295;BME280;45705;55.592;37.460;2023-05-08T03:34:12;100643.38;;;7.65;47.46
58295;BME280;45705;55.592;37.460;2023-05-08T03:36:38;100641.63;;;9.27;42.40
58295;BME280;45705;55.592;37.460;2023-05-08T03:39:04;100641.50;;;10.53;39.40
58295;BME280;45705;55.592;37.460;2023-05-08T03:41:30;100639.59;;;11.86;36.38
58295;BME280;45705;55.592;37.460;2023-05-08T03:43:56;100646.09;;;12.00;35.82
58295;BME280;45705;55.592;37.460;2023-05-08T03:46:21;100637.59;;;13.63;32.60
58295;BME280;45705;55.592;37.460;2023-05-08T03:48:48;100637.41;;;14.35;30.99
58295;BME280;45705;55.592;37.460;2023-05-08T03:51:16;100643.13;;;14.39;30.75
58295;BME280;45705;55.592;37.460;2023-05-08T03:53:42;100639.75;;;15.41;29.30
58295;BME280;45705;55.592;37.460;2023-05-08T03:56:07;100644.81;;;14.87;29.20
58295;BME280;45705;55.592;37.460;2023-05-08T03:58:36;100654.91;;;14.91;29.44
58295;BME280;45705;55.592;37.460;2023-05-08T04:05:58;100659.97;;;14.98;28.94
58295;BME280;45705;55.592;37.460;2023-05-08T04:08:28;100654.06;;;15.65;28.98
58295;BME280;45705;55.592;37.460;2023-05-08T04:11:03;100638.31;;;17.03;27.09
58295;BME280;45705;55.592;37.460;2023-05-08T04:13:31;100642.69;;;17.44;25.98
58295;BME280;45705;55.592;37.460;2023-05-08T04:16:06;100643.84;;;18.35;24.61
58295;BME280;45705;55.592;37.460;2023-05-08T04:18:35;100629.69;;;20.04;22.86
58295;BME280;45705;55.592;37.460;2023-05-08T04:21:01;100626.72;;;20.31;22.28
58295;BME280;45705;55.592;37.460;2023-05-08T04:23:28;100639.69;;;19.58;23.01
58295;BME280;45705;55.592;37.460;2023-05-08T04:25:55;100642.94;;;19.22;23.60
58295;BME280;45705;55.592;37.460;2023-05-08T04:28:21;100645.53;;;19.27;23.50
58295;BME280;45705;55.592;37.460;2023-05-08T04:30:47;100649.81;;;17.94;24.76
58295;BME280;45705;55.592;37.460;2023-05-08T04:33:13;100646.44;;;18.93;23.82
58295;BME280;45705;55.592;37.460;2023-05-08T04:35:40;100634.69;;;21.57;21.49
58295;BME280;45705;55.592;37.460;2023-05-08T04:38:06;100640.97;;;21.20;21.14
58295;BME280;45705;55.592;37.460;2023-05-08T04:40:31;100644.34;;;20.80;21.58
58295;BME280;45705;55.592;37.460;2023-05-08T04:42:57;100648.03;;;20.30;22.56
58295;BME280;45705;55.592;37.460;2023-05-08T04:45:23;100639.81;;;21.34;21.10
58295;BME280;45705;55.592;37.460;2023-05-08T04:47:49;100630.03;;;22.38;20.08
58295;BME280;45705;55.592;37.460;2023-05-08T04:50:15;100636.13;;;22.03;20.60
58295;BME280;45705;55.592;37.460;2023-05-08T04:52:40;100644.84;;;20.95;21.26
58295;BME280;45705;55.592;37.460;2023-05-08T04:55:07;100635.34;;;20.29;21.90
58295;BME280;45705;55.592;37.460;2023-05-08T04:57:35;100643.66;;;20.83;21.28
58295;BME280;45705;55.592;37.460;2023-05-08T05:00:00;100637.06;;;21.95;20.04
58295;BME280;45705;55.592;37.460;2023-05-08T05:02:29;100635.66;;;22.01;20.15
58295;BME280;45705;55.592;37.460;2023-05-08T05:04:55;100635.53;;;22.95;19.47
58295;BME280;45705;55.592;37.460;2023-05-08T05:07:23;100647.81;;;22.94;19.47
58295;BME280;45705;55.592;37.460;2023-05-08T05:09:49;100645.81;;;23.38;18.71
58295;BME280;45705;55.592;37.460;2023-05-08T05:12:15;100652.88;;;23.36;18.46
58295;BME280;45705;55.592;37.460;2023-05-08T05:14:40;100655.91;;;24.14;17.81
58295;BME280;45705;55.592;37.460;2023-05-08T05:17:06;100660.63;;;21.65;19.12
58295;BME280;45705;55.592;37.460;2023-05-08T05:19:32;100658.81;;;22.90;18.63
58295;BME280;45705;55.592;37.460;2023-05-08T05:21:58;100651.09;;;24.50;17.57
58295;BME280;45705;55.592;37.460;2023-05-08T05:24:24;100662.31;;;23.98;17.50
58295;BME280;45705;55.592;37.460;2023-05-08T05:26:49;100650.94;;;25.01;16.83
58295;BME280;45705;55.592;37.460;2023-05-08T05:29:15;100658.56;;;24.46;17.04
58295;BME280;45705;55.592;37.460;2023-05-08T05:31:41;100659.16;;;24.35;17.17
58295;BME280;45705;55.592;37.460;2023-05-08T05:34:07;100659.53;;;24.53;17.03
58295;BME280;45705;55.592;37.460;2023-05-08T05:36:33;100662.88;;;23.88;17.49
58295;BME280;45705;55.592;37.460;2023-05-08T05:38:59;100667.91;;;23.67;17.58
58295;BME280;45705;55.592;37.460;2023-05-08T05:41:24;100673.16;;;24.23;16.91
58295;BME280;45705;55.592;37.460;2023-05-08T05:43:50;100668.19;;;23.62;16.87
58295;BME280;45705;55.592;37.460;2023-05-08T05:46:16;100669.50;;;23.04;17.50
58295;BME280;45705;55.592;37.460;2023-05-08T05:48:42;100657.53;;;24.34;16.66
58295;BME280;45705;55.592;37.460;2023-05-08T05:51:08;100666.78;;;22.23;18.34
58295;BME280;45705;55.592;37.460;2023-05-08T05:53:34;100663.16;;;24.38;17.12
58295;BME280;45705;55.592;37.460;2023-05-08T05:56:00;100655.41;;;25.29;15.85
58295;BME280;45705;55.592;37.460;2023-05-08T05:58:26;100654.06;;;25.00;15.98
58295;BME280;45705;55.592;37.460;2023-05-08T06:00:53;100662.69;;;24.52;15.79
58295;BME280;45705;55.592;37.460;2023-05-08T06:03:18;100666.38;;;22.77;17.44
58295;BME280;45705;55.592;37.460;2023-05-08T06:05:45;100663.88;;;24.70;16.06
58295;BME280;45705;55.592;37.460;2023-05-08T06:08:11;100664.44;;;24.60;15.77
58295;BME280;45705;55.592;37.460;2023-05-08T06:10:36;100674.41;;;21.28;17.35
58295;BME280;45705;55.592;37.460;2023-05-08T06:13:02;100674.88;;;22.16;17.12
58295;BME280;45705;55.592;37.460;2023-05-08T06:15:28;100681.56;;;20.62;18.17
58295;BME280;45705;55.592;37.460;2023-05-08T06:17:53;100672.56;;;22.18;17.64
58295;BME280;45705;55.592;37.460;2023-05-08T06:20:19;100670.50;;;23.75;16.38
58295;BME280;45705;55.592;37.460;2023-05-08T06:22:45;100676.16;;;22.87;17.07
58295;BME280;45705;55.592;37.460;2023-05-08T06:25:10;100677.41;;;23.34;17.13
58295;BME280;45705;55.592;37.460;2023-05-08T06:27:36;100673.66;;;23.42;16.62
58295;BME280;45705;55.592;37.460;2023-05-08T06:30:02;100670.81;;;22.94;16.98
58295;BME280;45705;55.592;37.460;2023-05-08T06:32:28;100666.34;;;24.01;16.06
58295;BME280;45705;55.592;37.460;2023-05-08T06:34:54;100672.28;;;24.19;16.67
58295;BME280;45705;55.592;37.460;2023-05-08T06:37:20;100671.13;;;24.20;15.90
58295;BME280;45705;55.592;37.460;2023-05-08T06:39:45;100670.97;;;24.13;16.33
58295;BME280;45705;55.592;37.460;2023-05-08T06:42:11;100662.03;;;24.59;15.73
58295;BME280;45705;55.592;37.460;2023-05-08T06:44:38;100665.56;;;23.69;16.17
58295;BME280;45705;55.592;37.460;2023-05-08T06:47:05;100670.91;;;22.98;16.81
58295;BME280;45705;55.592;37.460;2023-05-08T06:49:31;100663.88;;;24.70;15.41
58295;BME280;45705;55.592;37.460;2023-05-08T06:51:56;100661.34;;;24.46;15.67
58295;BME280;45705;55.592;37.460;2023-05-08T06:54:22;100670.09;;;20.72;18.70
58295;BME280;45705;55.592;37.460;2023-05-08T06:56:47;100667.13;;;20.77;18.67
58295;BME280;45705;55.592;37.460;2023-05-08T06:59:13;100659.91;;;21.43;18.82
58295;BME280;45705;55.592;37.460;2023-05-08T07:01:38;100663.00;;;22.56;17.52
58295;BME280;45705;55.592;37.460;2023-05-08T07:04:04;100660.00;;;22.61;17.66
58295;BME280;45705;55.592;37.460;2023-05-08T07:06:30;100667.19;;;20.05;19.14
58295;BME280;45705;55.592;37.460;2023-05-08T07:08:56;100657.88;;;20.61;19.33
58295;BME280;45705;55.592;37.460;2023-05-08T07:11:21;100652.75;;;21.91;18.11
58295;BME280;45705;55.592;37.460;2023-05-08T07:13:47;100651.81;;;21.38;18.75
58295;BME280;45705;55.592;37.460;2023-05-08T07:16:13;100656.28;;;22.16;18.16
58295;BME280;45705;55.592;37.460;2023-05-08T07:18:38;100654.22;;;20.27;19.57
58295;BME280;45705;55.592;37.460;2023-05-08T07:21:04;100664.91;;;18.66;21.29
58295;BME280;45705;55.592;37.460;2023-05-08T07:23:29;100660.59;;;19.30;20.71
58295;BME280;45705;55.592;37.460;2023-05-08T07:25:55;100662.78;;;18.02;20.79
58295;BME280;45705;55.592;37.460;2023-05-08T07:28:22;100666.13;;;16.65;22.21
58295;BME280;45705;55.592;37.460;2023-05-08T07:30:47;100677.44;;;14.50;24.48
58295;BME280;45705;55.592;37.460;2023-05-08T07:33:13;100675.59;;;13.84;25.67
58295;BME280;45705;55.592;37.460;2023-05-08T07:35:39;100669.03;;;14.66;24.73
58295;BME280;45705;55.592;37.460;2023-05-08T07:38:05;100671.38;;;14.15;24.52
58295;BME280;45705;55.592;37.460;2023-05-08T07:40:30;100668.41;;;14.31;24.79
58295;BME280;45705;55.592;37.460;2023-05-08T07:42:56;100669.34;;;15.11;23.82
58295;BME280;45705;55.592;37.460;2023-05-08T07:45:21;100664.41;;;14.80;24.23
58295;BME280;45705;55.592;37.460;2023-05-08T07:47:47;100659.38;;;14.49;24.69
58295;BME280;45705;55.592;37.460;2023-05-08T07:50:13;100665.22;;;14.94;24.69
58295;BME280;45705;55.592;37.460;2023-05-08T07:52:39;100657.19;;;15.17;25.02
58295;BME280;45705;55.592;37.460;2023-05-08T07:55:05;100652.94;;;15.52;24.01
58295;BME280;45705;55.592;37.460;2023-05-08T07:57:37;100652.72;;;15.49;24.09
58295;BME280;45705;55.592;37.460;2023-05-08T08:00:06;100658.25;;;14.69;24.90
58295;BME280;45705;55.592;37.460;2023-05-08T08:02:38;100661.69;;;14.23;25.66
58295;BME280;45705;55.592;37.460;2023-05-08T08:05:05;100656.66;;;14.11;25.53
58295;BME280;45705;55.592;37.460;2023-05-08T08:07:30;100662.91;;;13.93;25.85
58295;BME280;45705;55.592;37.460;2023-05-08T08:09:59;100652.88;;;14.45;25.40
58295;BME280;45705;55.592;37.460;2023-05-08T08:12:25;100656.25;;;13.99;25.80
58295;BME280;45705;55.592;37.460;2023-05-08T08:14:50;100651.75;;;13.89;26.64
58295;BME280;45705;55.592;37.460;2023-05-08T08:17:16;100652.13;;;13.83;26.42
58295;BME280;45705;55.592;37.460;2023-05-08T08:19:42;100654.56;;;13.84;26.78
58295;BME280;45705;55.592;37.460;2023-05-08T08:22:07;100656.59;;;13.73;26.68
58295;BME280;45705;55.592;37.460;2023-05-08T08:24:33;100658.72;;;13.28;26.95
58295;BME280;45705;55.592;37.460;2023-05-08T08:26:58;100643.81;;;12.91;26.95
58295;BME280;45705;55.592;37.460;2023-05-08T08:29:24;100652.69;;;12.73;27.51
58295;BME280;45705;55.592;37.460;2023-05-08T08:31:50;100650.72;;;12.44;26.64
58295;BME280;45705;55.592;37.460;2023-05-08T08:34:16;100654.97;;;12.60;26.43
58295;BME280;45705;55.592;37.460;2023-05-08T08:36:41;100653.53;;;11.79;27.36
58295;BME280;45705;55.592;37.460;2023-05-08T08:39:07;100645.72;;;12.56;26.98
58295;BME280;45705;55.592;37.460;2023-05-08T08:41:32;100657.56;;;11.97;27.05
58295;BME280;45705;55.592;37.460;2023-05-08T08:43:58;100651.41;;;11.60;27.49
58295;BME280;45705;55.592;37.460;2023-05-08T08:46:24;100649.00;;;11.54;27.68
58295;BME280;45705;55.592;37.460;2023-05-08T08:48:51;100655.06;;;11.20;27.30
58295;BME280;45705;55.592;37.460;2023-05-08T08:51:31;100653.09;;;11.46;27.30
58295;BME280;45705;55.592;37.460;2023-05-08T08:54:03;100646.75;;;11.66;26.62
58295;BME280;45705;55.592;37.460;2023-05-08T08:56:30;100645.44;;;12.18;26.04
58295;BME280;45705;55.592;37.460;2023-05-08T08:58:57;100651.22;;;11.36;27.24
58295;BME280;45705;55.592;37.460;2023-05-08T09:01:24;100649.47;;;11.66;27.07
58295;BME280;45705;55.592;37.460;2023-05-08T09:03:51;100653.91;;;11.47;26.92
58295;BME280;45705;55.592;37.460;2023-05-08T09:06:17;100643.00;;;11.47;27.42
58295;BME280;45705;55.592;37.460;2023-05-08T09:08:43;100649.59;;;11.20;27.54
58295;BME280;45705;55.592;37.460;2023-05-08T09:11:09;100650.44;;;12.06;26.75
58295;BME280;45705;55.592;37.460;2023-05-08T09:13:34;100646.22;;;11.69;27.17
58295;BME280;45705;55.592;37.460;2023-05-08T09:16:00;100649.47;;;12.26;27.25
58295;BME280;45705;55.592;37.460;2023-05-08T09:18:25;100643.38;;;12.45;26.82
58295;BME280;45705;55.592;37.460;2023-05-08T09:20:51;100642.91;;;12.67;26.60
58295;BME280;45705;55.592;37.460;2023-05-08T09:23:17;100641.91;;;13.16;25.64
58295;BME280;45705;55.592;37.460;2023-05-08T09:25:44;100646.81;;;12.55;26.02
58295;BME280;45705;55.592;37.460;2023-05-08T09:33:14;100640.53;;;12.89;26.33
58295;BME280;45705;55.592;37.460;2023-05-08T09:35:40;100641.75;;;12.38;26.66
58295;BME280;45705;55.592;37.460;2023-05-08T09:38:05;100639.25;;;12.82;26.76
58295;BME280;45705;55.592;37.460;2023-05-08T09:40:31;100632.72;;;13.36;26.20
58295;BME280;45705;55.592;37.460;2023-05-08T09:42:57;100635.66;;;12.86;27.10
58295;BME280;45705;55.592;37.460;2023-05-08T09:45:35;100630.38;;;12.95;27.54
58295;BME280;45705;55.592;37.460;2023-05-08T09:48:03;100632.38;;;12.84;27.19
58295;BME280;45705;55.592;37.460;2023-05-08T09:50:28;100635.16;;;12.79;26.80
58295;BME280;45705;55.592;37.460;2023-05-08T09:52:54;100628.59;;;12.80;26.97
58295;BME280;45705;55.592;37.460;2023-05-08T09:55:19;100637.16;;;11.89;27.28
58295;BME280;45705;55.592;37.460;2023-05-08T09:57:55;100627.84;;;12.40;26.90
58295;BME280;45705;55.592;37.460;2023-05-08T10:00:21;100623.69;;;12.08;26.91
58295;BME280;45705;55.592;37.460;2023-05-08T10:05:23;100635.00;;;11.71;27.78
58295;BME280;45705;55.592;37.460;2023-05-08T10:07:48;100637.88;;;11.30;28.36
58295;BME280;45705;55.592;37.460;2023-05-08T10:10:14;100637.72;;;10.80;29.20
58295;BME280;45705;55.592;37.460;2023-05-08T10:12:46;100642.03;;;11.01;29.27
58295;BME280;45705;55.592;37.460;2023-05-08T10:15:12;100638.78;;;10.69;29.29
58295;BME280;45705;55.592;37.460;2023-05-08T10:17:40;100650.47;;;10.49;29.87
58295;BME280;45705;55.592;37.460;2023-05-08T10:20:08;100644.19;;;10.28;29.95
58295;BME280;45705;55.592;37.460;2023-05-08T10:22:36;100632.25;;;10.44;30.00
58295;BME280;45705;55.592;37.460;2023-05-08T10:25:02;100640.06;;;10.25;30.34
58295;BME280;45705;55.592;37.460;2023-05-08T10:27:40;100632.25;;;10.75;29.79
58295;BME280;45705;55.592;37.460;2023-05-08T10:30:09;100650.75;;;10.52;29.60
58295;BME280;45705;55.592;37.460;2023-05-08T10:32:42;100640.94;;;10.41;29.62
58295;BME280;45705;55.592;37.460;2023-05-08T10:35:08;100633.88;;;10.76;29.66
58295;BME280;45705;55.592;37.460;2023-05-08T10:37:35;100627.28;;;11.23;28.99
58295;BME280;45705;55.592;37.460;2023-05-08T10:40:01;100625.38;;;11.18;28.86
58295;BME280;45705;55.592;37.460;2023-05-08T10:42:28;100620.63;;;11.60;28.39
58295;BME280;45705;55.592;37.460;2023-05-08T10:44:54;100622.41;;;11.90;28.27
58295;BME280;45705;55.592;37.460;2023-05-08T10:47:35;100618.50;;;12.12;27.76
58295;BME280;45705;55.592;37.460;2023-05-08T10:55:19;100598.75;;;12.59;27.46
58295;BME280;45705;55.592;37.460;2023-05-08T11:03:23;100600.13;;;12.91;26.82
58295;BME280;45705;55.592;37.460;2023-05-08T11:05:49;100590.53;;;12.65;26.52
58295;BME280;45705;55.592;37.460;2023-05-08T11:08:19;100589.94;;;12.68;26.55
58295;BME280;45705;55.592;37.460;2023-05-08T11:10:47;100586.84;;;13.09;26.44
58295;BME280;45705;55.592;37.460;2023-05-08T11:13:15;100585.25;;;13.75;25.89
58295;BME280;45705;55.592;37.460;2023-05-08T11:15:41;100593.63;;;13.59;26.02
58295;BME280;45705;55.592;37.460;2023-05-08T11:18:14;100585.00;;;13.71;25.99
58295;BME280;45705;55.592;37.460;2023-05-08T11:20:41;100583.09;;;13.91;25.83
58295;BME280;45705;55.592;37.460;2023-05-08T11:25:47;100585.88;;;13.48;26.31
58295;BME280;45705;55.592;37.460;2023-05-08T11:28:22;100586.84;;;13.09;26.51
58295;BME280;45705;55.592;37.460;2023-05-08T11:30:48;100583.78;;;12.86;26.85
58295;BME280;45705;55.592;37.460;2023-05-08T11:33:17;100587.69;;;13.04;26.91
58295;BME280;45705;55.592;37.460;2023-05-08T11:38:25;100579.72;;;12.84;26.81
58295;BME280;45705;55.592;37.460;2023-05-08T11:43:18;100587.03;;;12.25;27.15
58295;BME280;45705;55.592;37.460;2023-05-08T11:45:43;100587.22;;;12.68;26.57
58295;BME280;45705;55.592;37.460;2023-05-08T11:48:11;100586.00;;;12.84;26.32
58295;BME280;45705;55.592;37.460;2023-05-08T11:50:38;100588.00;;;12.73;26.33
58295;BME280;45705;55.592;37.460;2023-05-08T11:53:04;100580.50;;;12.89;26.18
58295;BME280;45705;55.592;37.460;2023-05-08T11:55:29;100583.78;;;12.86;26.25
58295;BME280;45705;55.592;37.460;2023-05-08T11:57:55;100583.00;;;12.80;25.93
58295;BME280;45705;55.592;37.460;2023-05-08T12:00:21;100581.97;;;12.76;25.58
58295;BME280;45705;55.592;37.460;2023-05-08T12:02:46;100577.34;;;13.25;24.58
58295;BME280;45705;55.592;37.460;2023-05-08T12:05:12;100581.28;;;12.31;25.56
58295;BME280;45705;55.592;37.460;2023-05-08T12:07:43;100586.41;;;12.33;25.46
58295;BME280;45705;55.592;37.460;2023-05-08T12:10:10;100578.22;;;11.98;25.74
58295;BME280;45705;55.592;37.460;2023-05-08T12:12:36;100581.88;;;11.73;26.05
58295;BME280;45705;55.592;37.460;2023-05-08T12:15:09;100579.06;;;11.89;25.71
58295;BME280;45705;55.592;37.460;2023-05-08T12:17:35;100577.44;;;11.93;25.44
58295;BME280;45705;55.592;37.460;2023-05-08T12:20:18;100577.44;;;11.88;25.72
58295;BME280;45705;55.592;37.460;2023-05-08T12:22:51;100575.81;;;12.31;25.13
58295;BME280;45705;55.592;37.460;2023-05-08T12:25:17;100568.31;;;12.47;25.00
58295;BME280;45705;55.592;37.460;2023-05-08T12:27:43;100575.09;;;12.15;24.88
58295;BME280;45705;55.592;37.460;2023-05-08T12:30:09;100573.31;;;11.95;25.18
58295;BME280;45705;55.592;37.460;2023-05-08T12:32:36;100572.78;;;12.33;25.07
58295;BME280;45705;55.592;37.460;2023-05-08T12:35:02;100570.19;;;12.17;25.36
58295;BME280;45705;55.592;37.460;2023-05-08T12:37:29;100572.28;;;11.91;25.52
58295;BME280;45705;55.592;37.460;2023-05-08T12:39:54;100563.75;;;11.98;25.50
58295;BME280;45705;55.592;37.460;2023-05-08T12:42:20;100555.84;;;12.36;25.36
58295;BME280;45705;55.592;37.460;2023-05-08T12:44:51;100555.16;;;12.54;24.97
58295;BME280;45705;55.592;37.460;2023-05-08T12:47:20;100555.75;;;12.46;25.24
58295;BME280;45705;55.592;37.460;2023-05-08T12:49:46;100564.06;;;12.31;25.31
58295;BME280;45705;55.592;37.460;2023-05-08T12:52:13;100558.09;;;12.29;25.27
58295;BME280;45705;55.592;37.460;2023-05-08T12:54:39;100550.97;;;12.33;25.60
58295;BME280;45705;55.592;37.460;2023-05-08T12:57:07;100557.91;;;12.20;26.09
58295;BME280;45705;55.592;37.460;2023-05-08T12:59:32;100558.63;;;11.96;26.51
58295;BME280;45705;55.592;37.460;2023-05-08T13:01:58;100554.78;;;11.97;27.18
58295;BME280;45705;55.592;37.460;2023-05-08T13:04:24;100555.59;;;11.98;27.71
58295;BME280;45705;55.592;37.460;2023-05-08T13:06:55;100554.63;;;11.73;28.22
58295;BME280;45705;55.592;37.460;2023-05-08T13:09:21;100552.75;;;11.03;28.77
58295;BME280;45705;55.592;37.460;2023-05-08T13:11:49;100560.16;;;10.88;29.20
58295;BME280;45705;55.592;37.460;2023-05-08T13:14:15;100563.66;;;11.03;28.72
58295;BME280;45705;55.592;37.460;2023-05-08T13:16:41;100551.69;;;10.89;28.90
58295;BME280;45705;55.592;37.460;2023-05-08T13:19:07;100554.25;;;11.40;28.49
58295;BME280;45705;55.592;37.460;2023-05-08T13:21:33;100545.75;;;11.57;27.94
58295;BME280;45705;55.592;37.460;2023-05-08T13:23:58;100545.50;;;11.43;28.19
58295;BME280;45705;55.592;37.460;2023-05-08T13:26:25;100550.00;;;11.09;28.83